createdAt,value
2023-05-06T00:01:41.641Z,1.00
2023-05-06T00:04:10.006Z,0.95
2023-05-06T00:06:38.723Z,1.10
2023-05-06T00:09:07.018Z,0.68
2023-05-06T00:11:35.393Z,1.00
2023-05-06T00:14:03.651Z,0.73
2023-05-06T00:16:32.051Z,1.00
2023-05-06T00:19:00.294Z,1.15
2023-05-06T00:21:28.990Z,1.08
2023-05-06T00:23:57.489Z,1.10
2023-05-06T00:26:25.761Z,1.08
2023-05-06T00:28:54.013Z,1.00
2023-05-06T00:31:22.349Z,0.95
2023-05-06T00:33:50.585Z,1.05
2023-05-06T00:36:19.357Z,1.17
2023-05-06T00:38:47.625Z,1.75
2023-05-06T00:41:15.865Z,1.08
2023-05-06T00:43:44.109Z,1.10
2023-05-06T00:46:12.679Z,1.10
2023-05-06T00:48:41.526Z,0.75
2023-05-06T00:51:09.938Z,1.10
2023-05-06T00:53:38.706Z,1.10
2023-05-06T00:56:07.278Z,1.10
2023-05-06T00:58:36.385Z,1.15
2023-05-06T01:01:04.804Z,1.50
2023-05-06T01:03:33.315Z,1.40
2023-05-06T01:06:31.161Z,1.38
2023-05-06T01:09:08.719Z,1.50
2023-05-06T01:11:50.972Z,1.52
2023-05-06T01:14:39.924Z,1.27
2023-05-06T01:17:12.729Z,1.60
2023-05-06T01:19:52.208Z,1.20
2023-05-06T01:22:21.353Z,1.40
2023-05-06T01:24:50.024Z,1.38
2023-05-06T01:27:19.138Z,1.65
2023-05-06T01:29:48.481Z,1.30
2023-05-06T01:32:46.410Z,1.30
2023-05-06T01:35:44.827Z,1.35
2023-05-06T01:38:41.849Z,1.50
2023-05-06T01:41:14.741Z,1.90
2023-05-06T01:43:46.097Z,1.80
2023-05-06T01:46:20.129Z,1.50
2023-05-06T01:48:54.784Z,1.40
2023-05-06T01:53:51.827Z,1.40
2023-05-06T01:56:20.029Z,1.52
2023-05-06T01:58:48.350Z,1.52
2023-05-06T02:01:16.593Z,1.50
2023-05-06T02:03:44.945Z,1.30
2023-05-06T02:06:13.241Z,1.70
2023-05-06T02:08:42.076Z,1.85
2023-05-06T02:11:10.491Z,1.52
2023-05-06T02:13:38.702Z,1.38
2023-05-06T02:16:07.137Z,1.50
2023-05-06T02:18:35.592Z,1.90
2023-05-06T02:21:04.113Z,1.60
2023-05-06T02:23:32.384Z,1.40
2023-05-06T02:26:00.658Z,1.10
2023-05-06T02:28:28.840Z,1.35
2023-05-06T02:31:00.274Z,0.68
2023-05-06T02:33:28.788Z,1.00
2023-05-06T02:35:57.015Z,0.70
2023-05-06T02:38:25.865Z,0.95
2023-05-06T02:40:54.098Z,0.80
2023-05-06T02:43:23.856Z,1.05
2023-05-06T02:45:52.147Z,1.23
2023-05-06T02:48:20.373Z,0.90
2023-05-06T02:50:48.961Z,0.95
2023-05-06T02:53:17.132Z,0.85
2023-05-06T02:55:45.307Z,0.95
2023-05-06T02:58:13.509Z,0.80
2023-05-06T03:00:41.739Z,0.82
2023-05-06T03:03:10.855Z,0.90
2023-05-06T03:05:39.177Z,0.68
2023-05-06T03:08:07.691Z,0.90
2023-05-06T03:10:36.020Z,0.77
2023-05-06T03:13:04.231Z,0.90
2023-05-06T03:15:33.050Z,0.55
2023-05-06T03:18:01.334Z,0.90
2023-05-06T03:20:29.854Z,0.60
2023-05-06T03:22:58.092Z,0.70
2023-05-06T03:25:26.462Z,0.80
2023-05-06T03:27:54.634Z,0.57
2023-05-06T03:30:22.948Z,0.80
2023-05-06T03:32:51.254Z,0.95
2023-05-06T03:35:20.070Z,0.80
2023-05-06T03:37:48.707Z,0.95
2023-05-06T03:40:16.946Z,1.00
2023-05-06T03:42:46.201Z,0.70
2023-05-06T03:45:14.530Z,0.80
2023-05-06T03:47:42.798Z,1.10
2023-05-06T03:50:11.434Z,0.80
2023-05-06T03:52:39.797Z,1.05
2023-05-06T03:55:08.768Z,1.00
2023-05-06T03:57:37.188Z,1.00
2023-05-06T04:00:05.816Z,0.90
2023-05-06T04:02:37.112Z,0.90
2023-05-06T04:05:05.628Z,0.88
2023-05-06T04:07:33.902Z,1.17
2023-05-06T04:10:02.103Z,0.95
2023-05-06T04:12:30.340Z,1.00
2023-05-06T04:14:58.563Z,0.80
2023-05-06T04:17:26.836Z,1.00
2023-05-06T04:19:55.065Z,1.38
2023-05-06T04:22:23.358Z,1.13
2023-05-06T04:24:51.601Z,1.77
2023-05-06T04:27:19.820Z,1.42
2023-05-06T04:29:47.988Z,1.50
2023-05-06T04:32:19.002Z,1.35
2023-05-06T04:34:48.165Z,1.58
2023-05-06T04:37:16.367Z,1.00
2023-05-06T04:39:48.244Z,1.10
2023-05-06T04:42:19.740Z,1.30
2023-05-06T04:44:48.398Z,1.30
2023-05-06T04:47:17.341Z,1.50
2023-05-06T04:49:45.603Z,1.40
2023-05-06T04:52:13.827Z,1.55
2023-05-06T04:54:43.516Z,1.60
2023-05-06T04:57:13.082Z,1.17
2023-05-06T04:59:42.577Z,1.00
2023-05-06T05:02:10.822Z,1.25
2023-05-06T05:04:39.193Z,1.27
2023-05-06T05:07:08.278Z,1.40
2023-05-06T05:09:36.869Z,1.30
2023-05-06T05:12:05.194Z,1.50
2023-05-06T05:14:33.438Z,1.10
2023-05-06T05:17:01.657Z,1.27
2023-05-06T05:19:29.884Z,1.30
2023-05-06T05:21:58.164Z,1.40
2023-05-06T05:24:26.857Z,1.55
2023-05-06T05:26:55.043Z,1.33
2023-05-06T05:29:23.285Z,1.23
2023-05-06T05:31:51.577Z,1.30
2023-05-06T05:34:19.799Z,1.48
2023-05-06T05:36:48.214Z,1.42
2023-05-06T05:39:16.547Z,1.52
2023-05-06T05:41:44.794Z,1.33
2023-05-06T05:44:12.961Z,1.55
2023-05-06T05:46:41.264Z,1.67
2023-05-06T05:49:09.544Z,1.40
2023-05-06T05:51:37.725Z,1.70
2023-05-06T05:54:05.919Z,1.30
2023-05-06T05:56:34.166Z,1.40
2023-05-06T05:59:02.508Z,1.10
2023-05-06T06:01:30.747Z,1.60
2023-05-06T06:04:00.703Z,1.95
2023-05-06T06:06:29.075Z,1.80
2023-05-06T06:08:57.386Z,2.22
2023-05-06T06:11:27.699Z,1.83
2023-05-06T06:13:55.999Z,1.90
2023-05-06T06:16:24.390Z,1.73
2023-05-06T06:18:52.762Z,1.70
2023-05-06T06:21:21.245Z,1.70
2023-05-06T06:23:49.439Z,1.70
2023-05-06T06:26:17.724Z,2.00
2023-05-06T06:28:46.059Z,1.80
2023-05-06T06:31:14.471Z,1.70
2023-05-06T06:33:42.801Z,1.60
2023-05-06T06:36:11.391Z,1.90
2023-05-06T06:38:39.662Z,2.03
2023-05-06T06:41:08.136Z,1.70
2023-05-06T06:43:36.758Z,2.25
2023-05-06T06:46:05.019Z,1.75
2023-05-06T06:48:33.266Z,2.00
2023-05-06T06:51:01.530Z,1.60
2023-05-06T06:53:29.737Z,1.55
2023-05-06T06:55:57.982Z,1.50
2023-05-06T06:58:26.219Z,1.65
2023-05-06T07:00:54.526Z,1.60
2023-05-06T07:03:22.775Z,1.70
2023-05-06T07:05:51.731Z,1.80
2023-05-06T07:08:22.179Z,1.75
2023-05-06T07:10:50.417Z,1.80
2023-05-06T07:13:18.712Z,1.77
2023-05-06T07:15:46.997Z,1.98
2023-05-06T07:18:15.243Z,2.00
2023-05-06T07:20:43.562Z,1.70
2023-05-06T07:23:11.751Z,1.80
2023-05-06T07:25:39.972Z,2.10
2023-05-06T07:28:08.380Z,2.00
2023-05-06T07:30:39.574Z,2.30
2023-05-06T07:33:09.660Z,2.33
2023-05-06T07:35:38.487Z,2.33
2023-05-06T07:38:06.738Z,2.13
2023-05-06T07:40:35.108Z,2.45
2023-05-06T07:43:03.804Z,2.30
2023-05-06T07:45:32.200Z,2.22
2023-05-06T07:48:00.563Z,2.40
2023-05-06T07:50:29.034Z,2.80
2023-05-06T07:52:57.312Z,2.40
2023-05-06T07:55:25.493Z,2.88
2023-05-06T07:57:53.662Z,2.50
2023-05-06T08:00:22.028Z,2.58
2023-05-06T08:02:50.701Z,2.72
2023-05-06T08:05:19.265Z,3.08
2023-05-06T08:07:47.653Z,2.50
2023-05-06T08:10:16.041Z,3.10
2023-05-06T08:12:44.445Z,3.03
2023-05-06T08:15:13.121Z,2.75
2023-05-06T08:17:41.797Z,3.17
2023-05-06T08:20:10.466Z,2.55
2023-05-06T08:22:38.691Z,2.92
2023-05-06T08:25:07.589Z,2.90
2023-05-06T08:27:35.916Z,2.92
2023-05-06T08:30:04.119Z,2.45
2023-05-06T08:32:32.482Z,3.08
2023-05-06T08:35:01.561Z,2.70
2023-05-06T08:37:31.490Z,2.95
2023-05-06T08:40:00.098Z,2.80
2023-05-06T08:42:31.366Z,3.35
2023-05-06T08:45:00.665Z,2.95
2023-05-06T08:47:28.935Z,2.78
2023-05-06T08:49:57.550Z,2.90
2023-05-06T08:52:25.890Z,3.10
2023-05-06T08:55:01.944Z,2.90
2023-05-06T08:57:31.675Z,2.63
2023-05-06T09:00:00.582Z,2.47
2023-05-06T09:02:29.381Z,2.38
2023-05-06T09:04:57.901Z,2.33
2023-05-06T09:07:26.447Z,2.28
2023-05-06T09:09:54.649Z,1.90
2023-05-06T09:12:24.563Z,1.90
2023-05-06T09:14:56.369Z,1.80
2023-05-06T09:17:25.072Z,1.80
2023-05-06T09:20:00.348Z,1.58
2023-05-06T09:22:31.306Z,1.75
2023-05-06T09:25:00.030Z,1.80
2023-05-06T09:27:37.536Z,1.58
2023-05-06T09:30:13.282Z,1.48
2023-05-06T09:32:42.679Z,1.70
2023-05-06T09:35:12.613Z,1.75
2023-05-06T09:37:41.089Z,1.50
2023-05-06T09:40:10.168Z,1.50
2023-05-06T09:42:39.460Z,1.50
2023-05-06T09:45:10.400Z,1.67
2023-05-06T09:47:39.233Z,1.88
2023-05-06T09:50:10.191Z,1.65
2023-05-06T09:52:38.686Z,1.75
2023-05-06T09:55:08.856Z,1.90
2023-05-06T09:57:38.529Z,2.00
2023-05-06T10:00:14.649Z,1.75
2023-05-06T10:02:44.123Z,1.80
2023-05-06T10:05:14.558Z,1.88
2023-05-06T10:07:43.140Z,1.90
2023-05-06T10:10:13.001Z,1.75
2023-05-06T10:12:41.696Z,2.20
2023-05-06T10:15:10.840Z,1.85
2023-05-06T10:17:41.603Z,1.80
2023-05-06T10:20:12.159Z,1.90
2023-05-06T10:22:50.405Z,1.80
2023-05-06T10:25:38.643Z,2.13
2023-05-06T10:28:13.701Z,2.10
2023-05-06T10:30:51.606Z,2.00
2023-05-06T10:33:21.226Z,2.20
2023-05-06T10:35:58.474Z,2.20
2023-05-06T10:38:29.709Z,2.33
2023-05-06T10:40:59.213Z,2.10
2023-05-06T10:43:32.423Z,2.10
2023-05-06T10:46:09.941Z,2.00
2023-05-06T10:48:40.084Z,1.90
2023-05-06T10:51:20.555Z,2.00
2023-05-06T10:53:59.035Z,1.85
2023-05-06T10:56:28.100Z,1.73
2023-05-06T10:58:58.336Z,2.00
2023-05-06T11:01:29.655Z,1.60
2023-05-06T11:03:58.104Z,1.60
2023-05-06T11:06:37.209Z,1.73
2023-05-06T11:09:06.827Z,1.52
2023-05-06T11:12:03.796Z,1.70
2023-05-06T11:14:39.116Z,1.58
2023-05-06T11:17:09.824Z,1.60
2023-05-06T11:19:39.982Z,1.50
2023-05-06T11:22:08.475Z,1.70
2023-05-06T11:24:40.939Z,1.50
2023-05-06T11:27:10.607Z,1.60
2023-05-06T11:29:39.201Z,1.77
2023-05-06T11:32:23.772Z,1.50
2023-05-06T11:34:57.508Z,1.70
2023-05-06T11:37:27.320Z,1.57
2023-05-06T11:39:55.730Z,1.75
2023-05-06T11:42:28.735Z,1.70
2023-05-06T11:44:57.289Z,1.90
2023-05-06T11:47:25.710Z,1.70
2023-05-06T11:49:59.905Z,1.90
2023-05-06T11:52:28.209Z,1.73
2023-05-06T11:54:56.437Z,1.70
2023-05-06T11:57:25.974Z,1.70
2023-05-06T11:59:57.010Z,1.63
2023-05-06T12:02:25.287Z,1.67
2023-05-06T12:04:54.052Z,1.63
2023-05-06T12:07:22.383Z,1.88
2023-05-06T12:09:51.909Z,1.60
2023-05-06T12:12:23.252Z,1.90
2023-05-06T12:14:53.669Z,1.90
2023-05-06T12:17:22.112Z,1.58
2023-05-06T12:19:51.148Z,1.80
2023-05-06T12:22:21.414Z,1.70
2023-05-06T12:24:50.447Z,1.70
2023-05-06T12:27:35.706Z,1.73
2023-05-06T12:30:05.257Z,1.50
2023-05-06T12:32:33.929Z,1.88
2023-05-06T12:35:08.080Z,1.70
2023-05-06T12:37:36.370Z,1.58
2023-05-06T12:40:04.859Z,1.48
2023-05-06T12:42:33.094Z,1.80
2023-05-06T12:45:15.310Z,1.50
2023-05-06T12:47:54.539Z,1.65
2023-05-06T12:50:40.488Z,1.88
2023-05-06T12:53:10.433Z,1.70
2023-05-06T12:55:40.100Z,1.77
2023-05-06T12:58:17.540Z,1.65
2023-05-06T13:00:46.373Z,1.88
2023-05-06T13:03:15.269Z,1.90
2023-05-06T13:05:43.521Z,1.60
2023-05-06T13:08:11.710Z,1.70
2023-05-06T13:10:39.888Z,1.70
2023-05-06T13:13:08.743Z,2.08
2023-05-06T13:15:37.215Z,1.63
2023-05-06T13:18:05.821Z,1.80
2023-05-06T13:20:34.077Z,1.60
2023-05-06T13:23:02.248Z,1.60
2023-05-06T13:25:30.424Z,1.88
2023-05-06T13:27:58.592Z,1.63
2023-05-06T13:30:26.826Z,1.92
2023-05-06T13:32:55.038Z,1.88
2023-05-06T13:35:23.243Z,1.70
2023-05-06T13:37:51.552Z,2.00
2023-05-06T13:40:19.812Z,1.70
2023-05-06T13:42:48.003Z,1.83
2023-05-06T13:45:16.203Z,1.95
2023-05-06T13:47:45.000Z,2.05
2023-05-06T13:50:13.358Z,1.95
2023-05-06T13:52:41.824Z,2.00
2023-05-06T13:55:10.716Z,1.90
2023-05-06T13:57:39.084Z,1.88
2023-05-06T14:00:08.345Z,2.00
2023-05-06T14:02:37.068Z,2.03
2023-05-06T14:05:05.797Z,2.10
2023-05-06T14:07:34.323Z,2.00
2023-05-06T14:10:02.631Z,1.80
2023-05-06T14:12:30.905Z,2.28
2023-05-06T14:14:59.249Z,2.28
2023-05-06T14:17:27.505Z,2.35
2023-05-06T14:19:55.702Z,1.92
2023-05-06T14:22:23.916Z,1.90
2023-05-06T14:24:52.142Z,2.03
2023-05-06T14:27:20.357Z,2.30
2023-05-06T14:29:48.954Z,2.40
2023-05-06T14:32:17.178Z,2.28
2023-05-06T14:34:45.389Z,2.30
2023-05-06T14:37:13.787Z,2.60
2023-05-06T14:39:41.996Z,2.50
2023-05-06T14:42:11.420Z,2.20
2023-05-06T14:44:39.687Z,2.20
2023-05-06T14:47:07.898Z,2.42
2023-05-06T14:49:36.718Z,2.42
2023-05-06T14:52:05.040Z,2.30
2023-05-06T14:54:34.271Z,2.03
2023-05-06T14:57:03.760Z,2.05
2023-05-06T14:59:31.998Z,2.20
2023-05-06T15:02:00.195Z,2.25
2023-05-06T15:04:28.455Z,2.20
2023-05-06T15:06:59.267Z,2.15
2023-05-06T15:09:27.616Z,2.28
2023-05-06T15:11:55.858Z,2.42
2023-05-06T15:14:24.099Z,2.50
2023-05-06T15:16:54.378Z,2.42
2023-05-06T15:19:22.722Z,2.40
2023-05-06T15:21:51.212Z,2.50
2023-05-06T15:24:19.557Z,2.30
2023-05-06T15:26:47.793Z,2.88
2023-05-06T15:29:16.735Z,2.20
2023-05-06T15:31:48.550Z,2.42
2023-05-06T15:34:17.064Z,2.65
2023-05-06T15:36:46.514Z,2.10
2023-05-06T15:39:15.389Z,2.40
2023-05-06T15:41:43.592Z,2.40
2023-05-06T15:44:16.164Z,2.10
2023-05-06T15:46:44.909Z,2.10
2023-05-06T15:49:45.475Z,2.47
2023-05-06T15:52:01.721Z,1.95
2023-05-06T15:54:30.078Z,2.47
2023-05-06T15:57:04.797Z,2.13
2023-05-06T15:59:33.365Z,2.10
2023-05-06T16:02:26.426Z,2.50
2023-05-06T16:04:50.345Z,2.33
2023-05-06T16:07:18.848Z,1.98
2023-05-06T16:09:47.391Z,2.05
2023-05-06T16:12:15.612Z,2.20
2023-05-06T16:14:44.222Z,2.10
2023-05-06T16:17:12.491Z,2.13
2023-05-06T16:19:40.736Z,2.30
2023-05-06T16:22:08.922Z,2.10
2023-05-06T16:24:37.365Z,2.00
2023-05-06T16:27:06.496Z,1.83
2023-05-06T16:29:34.716Z,2.20
2023-05-06T16:32:02.962Z,2.00
2023-05-06T16:34:31.334Z,1.85
2023-05-06T16:37:01.307Z,1.70
2023-05-06T16:39:30.054Z,2.00
2023-05-06T16:41:58.261Z,2.20
2023-05-06T16:44:26.492Z,1.88
2023-05-06T16:46:54.711Z,1.92
2023-05-06T16:49:23.254Z,1.63
2023-05-06T16:51:51.553Z,1.52
2023-05-06T16:54:19.765Z,1.50
2023-05-06T16:56:52.560Z,1.58
2023-05-06T16:59:22.399Z,1.70
2023-05-06T17:01:51.754Z,1.80
2023-05-06T17:04:20.084Z,1.73
2023-05-06T17:06:48.665Z,1.55
2023-05-06T17:09:17.787Z,1.60
2023-05-06T17:11:46.057Z,1.60
2023-05-06T17:14:14.944Z,1.60
2023-05-06T17:16:45.990Z,1.40
2023-05-06T17:19:14.328Z,1.50
2023-05-06T17:21:42.709Z,1.67
2023-05-06T17:24:11.462Z,1.50
2023-05-06T17:26:41.123Z,1.70
2023-05-06T17:29:09.469Z,1.48
2023-05-06T17:31:37.741Z,1.40
2023-05-06T17:34:05.966Z,1.40
2023-05-06T17:36:34.142Z,1.40
2023-05-06T17:39:06.803Z,1.60
2023-05-06T17:41:35.434Z,1.50
2023-05-06T17:44:03.655Z,1.38
2023-05-06T17:46:32.509Z,1.50
2023-05-06T17:49:00.791Z,1.30
2023-05-06T17:51:29.008Z,1.65
2023-05-06T17:53:58.391Z,1.30
2023-05-06T17:56:26.908Z,1.30
2023-05-06T17:58:55.182Z,1.30
2023-05-06T18:01:23.469Z,1.38
2023-05-06T18:03:51.824Z,1.10
2023-05-06T18:06:20.328Z,1.17
2023-05-06T18:08:48.916Z,0.90
2023-05-06T18:11:17.596Z,0.93
2023-05-06T18:13:46.000Z,1.10
2023-05-06T18:16:14.239Z,0.77
2023-05-06T18:18:43.568Z,1.00
2023-05-06T18:21:11.792Z,1.10
2023-05-06T18:23:40.011Z,1.27
2023-05-06T18:26:08.368Z,1.10
2023-05-06T18:28:41.873Z,1.02
2023-05-06T18:31:10.125Z,1.10
2023-05-06T18:33:38.298Z,1.30
2023-05-06T18:36:06.748Z,1.27
2023-05-06T18:38:34.983Z,1.10
2023-05-06T18:41:03.777Z,1.00
2023-05-06T18:43:32.113Z,1.10
2023-05-06T18:46:00.505Z,1.00
2023-05-06T18:48:31.741Z,0.95
2023-05-06T18:51:14.580Z,1.15
2023-05-06T18:53:43.516Z,1.08
2023-05-06T18:56:12.210Z,1.17
2023-05-06T18:58:41.425Z,1.30
2023-05-06T19:01:11.569Z,0.93
2023-05-06T19:03:40.136Z,1.10
2023-05-06T19:06:11.513Z,1.30
2023-05-06T19:08:39.853Z,1.02
2023-05-06T19:11:16.420Z,1.35
2023-05-06T19:13:45.794Z,1.52
2023-05-06T19:16:14.753Z,1.20
2023-05-06T19:18:43.110Z,1.10
2023-05-06T19:21:12.250Z,1.27
2023-05-06T19:23:40.555Z,1.40
2023-05-06T19:26:12.000Z,1.67
2023-05-06T19:28:43.140Z,1.42
2023-05-06T19:31:12.201Z,1.73
2023-05-06T19:33:41.063Z,1.40
2023-05-06T19:36:10.056Z,1.20
2023-05-06T19:38:38.680Z,1.10
2023-05-06T19:41:07.998Z,0.90
2023-05-06T19:43:43.032Z,0.93
2023-05-06T19:46:12.702Z,1.08
2023-05-06T19:48:40.964Z,1.05
2023-05-06T19:51:09.204Z,0.85
2023-05-06T19:53:37.562Z,1.33
2023-05-06T19:56:13.189Z,0.88
2023-05-06T19:58:41.881Z,1.00
2023-05-06T20:01:10.588Z,0.90
2023-05-06T20:03:40.193Z,1.08
2023-05-06T20:06:08.493Z,1.00
2023-05-06T20:08:36.699Z,1.05
2023-05-06T20:11:04.967Z,0.82
2023-05-06T20:13:33.222Z,0.88
2023-05-06T20:16:02.759Z,1.10
2023-05-06T20:18:32.721Z,1.30
2023-05-06T20:21:00.964Z,0.90
2023-05-06T20:23:29.204Z,1.00
2023-05-06T20:25:57.455Z,0.82
2023-05-06T20:28:25.627Z,0.93
2023-05-06T20:30:53.921Z,0.63
2023-05-06T20:33:22.224Z,0.90
2023-05-06T20:35:51.728Z,0.90
2023-05-06T20:38:20.253Z,0.90
2023-05-06T20:40:49.253Z,0.80
2023-05-06T20:43:17.646Z,1.00
2023-05-06T20:45:45.929Z,0.80
2023-05-06T20:48:15.086Z,0.90
2023-05-06T20:50:43.695Z,0.77
2023-05-06T20:53:12.121Z,1.08
2023-05-06T20:55:40.402Z,0.93
2023-05-06T20:58:08.637Z,0.75
2023-05-06T21:00:36.847Z,1.00
2023-05-06T21:03:05.302Z,0.90
2023-05-06T21:05:33.820Z,1.00
2023-05-06T21:08:01.996Z,0.90
2023-05-06T21:10:30.227Z,0.63
2023-05-06T21:12:58.484Z,0.85
2023-05-06T21:15:26.800Z,0.98
2023-05-06T21:17:55.094Z,0.80
2023-05-06T21:20:23.440Z,0.77
2023-05-06T21:22:51.713Z,1.00
2023-05-06T21:25:20.056Z,0.82
2023-05-06T21:27:48.557Z,0.80
2023-05-06T21:30:16.849Z,0.88
2023-05-06T21:32:45.346Z,0.80
2023-05-06T21:35:13.717Z,0.90
2023-05-06T21:37:41.913Z,0.82
2023-05-06T21:40:10.850Z,0.73
2023-05-06T21:42:39.095Z,0.90
2023-05-06T21:45:08.075Z,0.80
2023-05-06T21:47:36.688Z,0.73
2023-05-06T21:50:05.537Z,0.70
2023-05-06T21:52:34.180Z,0.63
2023-05-06T21:55:02.459Z,0.90
2023-05-06T21:57:30.797Z,0.80
2023-05-06T21:59:59.210Z,0.90
2023-05-06T22:02:27.790Z,0.85
2023-05-06T22:04:56.260Z,0.90
2023-05-06T22:07:24.518Z,0.85
2023-05-06T22:09:52.730Z,0.77
2023-05-06T22:12:21.207Z,0.90
2023-05-06T22:14:49.518Z,0.85
2023-05-06T22:17:17.704Z,0.73
2023-05-06T22:19:45.969Z,0.80
2023-05-06T22:22:14.715Z,0.80
2023-05-06T22:24:43.022Z,1.05
2023-05-06T22:27:11.357Z,1.15
2023-05-06T22:29:39.554Z,1.00
2023-05-06T22:32:07.934Z,1.60
2023-05-06T22:34:36.251Z,0.90
2023-05-06T22:37:10.422Z,1.00
2023-05-06T22:39:38.780Z,0.90
2023-05-06T22:42:07.076Z,0.90
2023-05-06T22:44:35.279Z,1.00
2023-05-06T22:47:03.483Z,0.90
2023-05-06T22:49:31.782Z,0.88
2023-05-06T22:52:00.022Z,0.68
2023-05-06T22:54:28.219Z,0.90
2023-05-06T22:56:56.490Z,0.98
2023-05-06T22:59:24.740Z,0.70
2023-05-06T23:01:52.957Z,0.77
2023-05-06T23:04:21.822Z,0.50
2023-05-06T23:06:50.122Z,1.33
2023-05-06T23:09:18.363Z,1.15
2023-05-06T23:11:47.378Z,0.93
2023-05-06T23:14:15.618Z,0.90
2023-05-06T23:16:43.966Z,0.80
2023-05-06T23:19:12.327Z,1.00
2023-05-06T23:21:42.258Z,0.80
2023-05-06T23:24:10.640Z,0.70
2023-05-06T23:26:38.905Z,0.98
2023-05-06T23:29:07.442Z,0.70
2023-05-06T23:31:35.808Z,0.88
2023-05-06T23:34:04.281Z,1.00
2023-05-06T23:36:32.473Z,0.82
2023-05-06T23:39:00.721Z,0.90
2023-05-06T23:41:29.046Z,0.70
2023-05-06T23:43:57.271Z,0.93
2023-05-06T23:46:25.579Z,0.77
2023-05-06T23:48:53.889Z,0.60
2023-05-06T23:51:22.147Z,0.90
2023-05-06T23:53:50.341Z,0.85
2023-05-06T23:56:18.561Z,0.80
2023-05-06T23:58:46.977Z,1.08
